1 Hotel West Hollywood East Helipad

US-3769 · 加利福尼亚州, 美国

罗盘
风向 的 风向 010° 直升机
风: 10 kt, 3 beaufort
0 ft 1.000 2.000 3.000 4.000 5.000
没有云
METAR KVNY 070951Z AUTO 01010KT 10SM CLR 14/M04 A3022 RMK AO2 SLP228 T01391044 $

METAR 1 Hotel West Hollywood East Helipad - US-3769

1 Hotel West Hollywood East Helipad是,美国中的直升机场。 视场标高为500 ft。 该领域的国际民航组织标志是US-3769.

这份报告是针对2023年2月7日 01:51, 当地时间在Van Nuys Airport进行的。

机场观察

风向为010°,速度为10 kt。

可见度为10 mi。

有没有云。 没有观察到天花板。

温度和风寒是14 °C。 露点为-4 °C,相对湿度为29%。 海平面上的气压为30,22 inHg (QNH)。

白天

今天,太阳从06:45升起,在17:29降落。 这适用于1 Hotel West Hollywood East Helipad,世界夏令时可能有所不同。 当地时间与世界标准时间之间的时差为-8 小时。 当前,没有夏令时有效。

公司介绍

我们没有关于这个机场的公司信息。

体会

到Vliegles.nl去找飞行课程,跳伞和其他飞行体验。 浏览页面,了解1 Hotel West Hollywood East Helipad附近所有可用的活动。 你也可以使用搜索功能来寻找你所在地附近的特定飞行课程、跳伞或其他飞行体验。

乌云

- CLR 没有云

温度 & 天气

温度 13,9 °C
露点 -4,4 °C
相对湿度 29%
Kp-index 3 (0-9)

评论

AO2自动气象站,可确定降水类型
SLP228海平面压力为30,20 inHg (30,20 inHg)
T01391044温度为13,9 °C (57,0 °F),露点为-4,4 °C (24,1 °F)
$该气象站需要维护

白天

日出
06:46 (3:50)
中午
12:08
日落
17:29

小工具

你想在你的网站上有一个关于1 Hotel West Hollywood East Helipad的当前航空天气(METAR)的小部件吗?

显示HTML代码

我们和第三方通过cookies跟踪您在我们网站上的互联网行为。如果你继续,我们认为你同意我们的饼干政策